Terminal Aerodrome Forecast
Issued by NWS

Home | Current Version | Previous Version | Text Only | Print | Product List | Glossary On
Versions: 1 2 3 4 5 6 7 8 9 10 11 12
000
FTUS42 KMLB 291700
TAFLEE
TAF
KLEE 291740Z 2918/3018 VRB04KT P6SM FEW045
     FM300100 VRB03KT P6SM SCT250
      TEMPO 3009/3013 5SM BR
     FM301400 30008KT P6SM BKN040 BKN250=

USA.gov is the U.S. government's official web portal to all federal, state and local government web resources and services.